Time,TemperatureF,DewpointF,PressureIn,WindDirection,WindDirectionDegrees,WindSpeedMPH,WindSpeedGustMPH,Humidity,HourlyPrecipIn,Conditions,Clouds,dailyrainin,SoftwareType,DateUTC
2013-01-24 00:05:00,22.0,15.9,30.62,WNW,296,2.0,5.0,77,0.00,,,0.00,Wunderground v.1.15,2013-01-24 07:05:00,
2013-01-24 00:15:00,22.5,15.8,30.62,WNW,296,2.0,2.0,75,0.00,,,0.00,Wunderground v.1.15,2013-01-24 07:15:00,
2013-01-24 00:20:00,22.6,15.6,30.62,WNW,296,1.0,1.0,74,0.00,,,0.00,Wunderground v.1.15,2013-01-24 07:20:00,
2013-01-24 00:25:00,22.8,15.8,30.61,WNW,295,1.0,1.0,74,0.00,,,0.00,Wunderground v.1.15,2013-01-24 07:25:00,
2013-01-24 00:30:00,22.9,15.5,30.61,WNW,296,1.0,1.0,73,0.00,,,0.00,Wunderground v.1.15,2013-01-24 07:30:00,
2013-01-24 00:40:00,22.6,15.9,30.61,WNW,296,2.0,2.0,75,0.00,,,0.00,Wunderground v.1.15,2013-01-24 07:40:00,
2013-01-24 00:45:00,22.8,16.4,30.61,WNW,295,2.0,3.0,76,0.00,,,0.00,Wunderground v.1.15,2013-01-24 07:45:00,
2013-01-24 00:50:00,23.5,16.7,30.61,WNW,295,2.0,3.0,75,0.00,,,0.00,Wunderground v.1.15,2013-01-24 07:50:00,
2013-01-24 01:00:00,23.9,16.2,30.60,WNW,295,1.0,3.0,72,0.00,,,0.00,Wunderground v.1.15,2013-01-24 08:00:00,
2013-01-24 01:05:00,23.8,16.1,30.60,WNW,295,2.0,3.0,72,0.00,,,0.00,Wunderground v.1.15,2013-01-24 08:05:00,
2013-01-24 01:10:00,23.8,16.1,30.60,WNW,295,1.0,1.0,72,0.00,,,0.00,Wunderground v.1.15,2013-01-24 08:10:00,
2013-01-24 01:20:00,23.4,15.7,30.60,WNW,296,1.0,1.0,72,0.00,,,0.00,Wunderground v.1.15,2013-01-24 08:20:00,
2013-01-24 01:25:00,23.4,15.7,30.60,WNW,296,1.0,3.0,72,0.00,,,0.00,Wunderground v.1.15,2013-01-24 08:25:00,
2013-01-24 01:30:00,23.2,15.5,30.60,WNW,295,0.0,3.0,72,0.00,,,0.00,Wunderground v.1.15,2013-01-24 08:30:00,
2013-01-24 01:40:00,22.8,15.4,30.60,WNW,295,0.0,3.0,73,0.00,,,0.00,Wunderground v.1.15,2013-01-24 08:40:00,
2013-01-24 01:45:00,22.4,15.1,30.60,WNW,295,0.0,3.0,73,0.00,,,0.00,Wunderground v.1.15,2013-01-24 08:45:00,
2013-01-24 01:55:00,21.9,15.5,30.60,WNW,296,0.0,3.0,76,0.00,,,0.00,Wunderground v.1.15,2013-01-24 08:55:00,
2013-01-24 02:00:00,21.8,15.4,30.60,WNW,296,0.0,3.0,76,0.00,,,0.00,Wunderground v.1.15,2013-01-24 09:00:00,
2013-01-24 02:05:00,21.8,15.4,30.60,WNW,296,1.0,3.0,76,0.00,,,0.00,Wunderground v.1.15,2013-01-24 09:05:00,
2013-01-24 02:15:00,21.7,15.6,30.60,WNW,296,1.0,3.0,77,0.00,,,0.00,Wunderground v.1.15,2013-01-24 09:15:00,
2013-01-24 02:20:00,21.8,15.4,30.60,WNW,295,2.0,3.0,76,0.00,,,0.00,Wunderground v.1.15,2013-01-24 09:20:00,
2013-01-24 02:30:00,22.0,14.7,30.60,WNW,296,2.0,2.0,73,0.00,,,0.00,Wunderground v.1.15,2013-01-24 09:30:00,
2013-01-24 02:35:00,21.8,14.5,30.60,WNW,295,1.0,3.0,73,0.00,,,0.00,Wunderground v.1.15,2013-01-24 09:35:00,
2013-01-24 02:40:00,21.8,14.2,30.59,WNW,295,1.0,1.0,72,0.00,,,0.00,Wunderground v.1.15,2013-01-24 09:40:00,
2013-01-24 02:50:00,20.8,13.8,30.59,WNW,296,1.0,1.0,74,0.00,,,0.00,Wunderground v.1.15,2013-01-24 09:50:00,
2013-01-24 03:00:00,20.8,14.4,30.58,WNW,296,1.0,3.0,76,0.00,,,0.00,Wunderground v.1.15,2013-01-24 10:00:00,
2013-01-24 03:05:00,21.7,15.3,30.59,WNW,296,2.0,3.0,76,0.00,,,0.00,Wunderground v.1.15,2013-01-24 10:05:00,
2013-01-24 03:10:00,22.5,15.8,30.59,WNW,296,2.0,2.0,75,0.00,,,0.00,Wunderground v.1.15,2013-01-24 10:10:00,
2013-01-24 03:20:00,22.7,15.3,30.59,WNW,295,0.0,3.0,73,0.00,,,0.00,Wunderground v.1.15,2013-01-24 10:20:00,
2013-01-24 03:25:00,22.5,15.5,30.59,WNW,295,0.0,3.0,74,0.00,,,0.00,Wunderground v.1.15,2013-01-24 10:25:00,
2013-01-24 03:30:00,22.9,15.2,30.59,WNW,296,0.0,3.0,72,0.00,,,0.00,Wunderground v.1.15,2013-01-24 10:30:00,
2013-01-24 03:35:00,22.9,15.5,30.59,WNW,295,0.0,3.0,73,0.00,,,0.00,Wunderground v.1.15,2013-01-24 10:35:00,
2013-01-24 03:45:00,22.9,15.5,30.59,WNW,296,1.0,2.0,73,0.00,,,0.00,Wunderground v.1.15,2013-01-24 10:45:00,
2013-01-24 03:50:00,23.0,15.6,30.58,WNW,296,1.0,1.0,73,0.00,,,0.00,Wunderground v.1.15,2013-01-24 10:50:00,
2013-01-24 04:00:00,22.6,15.6,30.58,WNW,295,0.0,3.0,74,0.00,,,0.00,Wunderground v.1.15,2013-01-24 11:00:00,
2013-01-24 04:05:00,22.7,15.7,30.57,WNW,296,1.0,3.0,74,0.00,,,0.00,Wunderground v.1.15,2013-01-24 11:05:00,
2013-01-24 04:15:00,23.2,16.4,30.56,WNW,296,1.0,3.0,75,0.00,,,0.00,Wunderground v.1.15,2013-01-24 11:15:00,
2013-01-24 04:20:00,23.6,16.2,30.56,WNW,296,2.0,3.0,73,0.00,,,0.00,Wunderground v.1.15,2013-01-24 11:20:00,
2013-01-24 04:25:00,24.2,16.5,30.56,WNW,296,2.0,3.0,72,0.00,,,0.00,Wunderground v.1.15,2013-01-24 11:25:00,
2013-01-24 04:30:00,24.6,15.9,30.55,WNW,295,1.0,1.0,69,0.00,,,0.00,Wunderground v.1.15,2013-01-24 11:30:00,
2013-01-24 04:40:00,24.3,16.6,30.55,WNW,296,1.0,3.0,72,0.00,,,0.00,Wunderground v.1.15,2013-01-24 11:40:00,
2013-01-24 04:45:00,24.2,15.8,30.55,WNW,296,1.0,3.0,70,0.00,,,0.00,Wunderground v.1.15,2013-01-24 11:45:00,
2013-01-24 04:50:00,24.4,16.0,30.55,WNW,296,1.0,1.0,70,0.00,,,0.00,Wunderground v.1.15,2013-01-24 11:50:00,
2013-01-24 05:00:00,24.0,15.6,30.55,WNW,296,0.0,3.0,70,0.00,,,0.00,Wunderground v.1.15,2013-01-24 12:00:00,
2013-01-24 05:05:00,23.8,15.8,30.55,WNW,295,0.0,3.0,71,0.00,,,0.00,Wunderground v.1.15,2013-01-24 12:05:00,
2013-01-24 05:10:00,23.6,15.6,30.55,WNW,295,0.0,3.0,71,0.00,,,0.00,Wunderground v.1.15,2013-01-24 12:10:00,
2013-01-24 05:20:00,23.1,15.7,30.55,WNW,296,0.0,3.0,73,0.00,,,0.00,Wunderground v.1.15,2013-01-24 12:20:00,
2013-01-24 05:25:00,22.9,15.8,30.54,WNW,296,1.0,3.0,74,0.00,,,0.00,Wunderground v.1.15,2013-01-24 12:25:00,
2013-01-24 05:30:00,22.9,16.5,30.54,WNW,296,1.0,3.0,76,0.00,,,0.00,Wunderground v.1.15,2013-01-24 12:30:00,
2013-01-24 05:35:00,23.5,16.7,30.54,WNW,296,2.0,3.0,75,0.00,,,0.00,Wunderground v.1.15,2013-01-24 12:35:00,
2013-01-24 05:45:00,24.1,16.7,30.54,WNW,296,1.0,2.0,73,0.00,,,0.00,Wunderground v.1.15,2013-01-24 12:45:00,
2013-01-24 05:50:00,24.0,16.6,30.53,WNW,296,1.0,3.0,73,0.00,,,0.00,Wunderground v.1.15,2013-01-24 12:50:00,
2013-01-24 06:00:00,24.7,16.6,30.54,WNW,296,1.0,1.0,71,0.00,,,0.00,Wunderground v.1.15,2013-01-24 13:00:00,
2013-01-24 06:05:00,24.9,17.5,30.54,WNW,295,1.0,3.0,73,0.00,,,0.00,Wunderground v.1.15,2013-01-24 13:05:00,
2013-01-24 06:10:00,24.8,17.4,30.53,WNW,296,1.0,1.0,73,0.00,,,0.00,Wunderground v.1.15,2013-01-24 13:10:00,
2013-01-24 06:15:00,24.7,17.9,30.53,WNW,296,1.0,3.0,75,0.00,,,0.00,Wunderground v.1.15,2013-01-24 13:15:00,
2013-01-24 06:25:00,25.0,17.9,30.53,WNW,295,0.0,3.0,74,0.00,,,0.00,Wunderground v.1.15,2013-01-24 13:25:00,
2013-01-24 06:30:00,25.2,17.8,30.52,WNW,295,0.0,3.0,73,0.00,,,0.00,Wunderground v.1.15,2013-01-24 13:30:00,
2013-01-24 06:35:00,25.2,18.4,30.53,WNW,296,0.0,3.0,75,0.00,,,0.00,Wunderground v.1.15,2013-01-24 13:35:00,
2013-01-24 06:45:00,25.3,18.8,30.54,WNW,295,0.0,3.0,76,0.00,,,0.00,Wunderground v.1.15,2013-01-24 13:45:00,
2013-01-24 06:50:00,25.3,18.8,30.53,WNW,295,0.0,3.0,76,0.00,,,0.00,Wunderground v.1.15,2013-01-24 13:50:00,
2013-01-24 06:55:00,25.4,18.9,30.53,WNW,295,0.0,3.0,76,0.00,,,0.00,Wunderground v.1.15,2013-01-24 13:55:00,
2013-01-24 07:05:00,25.7,18.2,30.53,WNW,296,0.0,3.0,73,0.00,,,0.00,Wunderground v.1.15,2013-01-24 14:05:00,
2013-01-24 07:10:00,26.0,18.5,30.52,WNW,295,0.0,3.0,73,0.00,,,0.00,Wunderground v.1.15,2013-01-24 14:10:00,
2013-01-24 07:15:00,26.2,18.4,30.52,WNW,296,1.0,3.0,72,0.00,,,0.00,Wunderground v.1.15,2013-01-24 14:15:00,
2013-01-24 07:25:00,26.7,18.6,30.50,WNW,295,1.0,3.0,71,0.00,,,0.00,Wunderground v.1.15,2013-01-24 14:25:00,
2013-01-24 07:30:00,26.8,19.3,30.50,WNW,296,1.0,1.0,73,0.00,,,0.00,Wunderground v.1.15,2013-01-24 14:30:00,
2013-01-24 07:35:00,27.0,18.8,30.50,WNW,296,0.0,3.0,71,0.00,,,0.00,Wunderground v.1.15,2013-01-24 14:35:00,
2013-01-24 07:45:00,28.3,17.3,30.50,WSW,240,2.0,4.0,63,0.00,,,0.00,Wunderground v.1.15,2013-01-24 14:45:00,
2013-01-24 07:50:00,28.1,17.8,30.50,WSW,240,2.0,2.0,65,0.00,,,0.00,Wunderground v.1.15,2013-01-24 14:50:00,
2013-01-24 07:55:00,27.8,17.9,30.50,WSW,240,0.0,3.0,66,0.00,,,0.00,Wunderground v.1.15,2013-01-24 14:55:00,
2013-01-24 08:00:00,27.4,17.5,30.50,WSW,240,0.0,3.0,66,0.00,,,0.00,Wunderground v.1.15,2013-01-24 15:00:00,
2013-01-24 08:10:00,26.9,17.4,30.50,WSW,240,0.0,3.0,67,0.00,,,0.00,Wunderground v.1.15,2013-01-24 15:10:00,
2013-01-24 08:15:00,26.7,18.2,30.51,WSW,240,1.0,3.0,70,0.00,,,0.00,Wunderground v.1.15,2013-01-24 15:15:00,
2013-01-24 08:20:00,26.6,17.8,30.50,WSW,240,1.0,3.0,69,0.00,,,0.00,Wunderground v.1.15,2013-01-24 15:20:00,
2013-01-24 08:30:00,26.3,17.5,30.50,WSW,240,0.0,3.0,69,0.00,,,0.00,Wunderground v.1.15,2013-01-24 15:30:00,
2013-01-24 08:35:00,26.5,17.7,30.50,WSW,240,0.0,3.0,69,0.00,,,0.00,Wunderground v.1.15,2013-01-24 15:35:00,
2013-01-24 08:40:00,26.2,17.4,30.50,WSW,240,0.0,3.0,69,0.00,,,0.00,Wunderground v.1.15,2013-01-24 15:40:00,
2013-01-24 08:50:00,25.5,17.1,30.50,WSW,240,0.0,3.0,70,0.00,,,0.00,Wunderground v.1.15,2013-01-24 15:50:00,
2013-01-24 08:55:00,26.0,17.6,30.50,WSW,240,1.0,3.0,70,0.00,,,0.00,Wunderground v.1.15,2013-01-24 15:55:00,
2013-01-24 09:00:00,26.7,17.9,30.49,WSW,240,0.0,3.0,69,0.00,,,0.00,Wunderground v.1.15,2013-01-24 16:00:00,
2013-01-24 09:10:00,29.4,19.1,30.49,WSW,240,0.0,3.0,65,0.00,,,0.00,Wunderground v.1.15,2013-01-24 16:10:00,
2013-01-24 09:15:00,30.7,20.0,30.49,WSW,240,0.0,3.0,64,0.00,,,0.00,Wunderground v.1.15,2013-01-24 16:15:00,
2013-01-24 09:20:00,32.1,19.0,30.49,WSW,240,0.0,3.0,58,0.00,,,0.00,Wunderground v.1.15,2013-01-24 16:20:00,
2013-01-24 09:25:00,33.4,19.4,30.49,WSW,240,0.0,3.0,56,0.00,,,0.00,Wunderground v.1.15,2013-01-24 16:25:00,
2013-01-24 09:35:00,36.0,20.1,30.49,WSW,240,0.0,3.0,52,0.00,,,0.00,Wunderground v.1.15,2013-01-24 16:35:00,
2013-01-24 09:40:00,37.0,20.1,30.49,WSW,240,0.0,3.0,50,0.00,,,0.00,Wunderground v.1.15,2013-01-24 16:40:00,
2013-01-24 09:45:00,37.4,20.4,30.49,WSW,240,0.0,3.0,50,0.00,,,0.00,Wunderground v.1.15,2013-01-24 16:45:00,
2013-01-24 09:50:00,37.6,21.1,30.49,WSW,240,0.0,3.0,51,0.00,,,0.00,Wunderground v.1.15,2013-01-24 16:50:00,
2013-01-24 10:00:00,37.7,21.6,30.49,WSW,240,1.0,3.0,52,0.00,,,0.00,Wunderground v.1.15,2013-01-24 17:00:00,
2013-01-24 10:05:00,37.7,20.2,30.48,WSW,240,2.0,3.0,49,0.00,,,0.00,Wunderground v.1.15,2013-01-24 17:05:00,
2013-01-24 10:15:00,38.9,19.9,30.48,WSW,240,0.0,1.0,46,0.00,,,0.00,Wunderground v.1.15,2013-01-24 17:15:00,
2013-01-24 10:20:00,39.5,19.9,30.48,WSW,240,0.0,0.0,45,0.00,,,0.00,Wunderground v.1.15,2013-01-24 17:20:00,
2013-01-24 10:25:00,40.2,20.0,30.48,WSW,240,0.0,0.0,44,0.00,,,0.00,Wunderground v.1.15,2013-01-24 17:25:00,
2013-01-24 10:30:00,40.6,19.8,30.48,WSW,240,0.0,0.0,43,0.00,,,0.00,Wunderground v.1.15,2013-01-24 17:30:00,
2013-01-24 10:40:00,41.3,22.6,30.48,WSW,240,0.0,2.0,47,0.00,,,0.00,Wunderground v.1.15,2013-01-24 17:40:00,
2013-01-24 10:45:00,40.8,22.1,30.48,WSW,240,1.0,2.0,47,0.00,,,0.00,Wunderground v.1.15,2013-01-24 17:45:00,
2013-01-24 10:50:00,40.2,22.5,30.48,WSW,240,1.0,1.0,49,0.00,,,0.00,Wunderground v.1.15,2013-01-24 17:50:00,
2013-01-24 11:00:00,41.5,23.2,30.47,NW,304,1.0,4.0,48,0.00,,,0.00,Wunderground v.1.15,2013-01-24 18:00:00,
2013-01-24 11:05:00,41.9,22.1,30.47,NW,317,2.0,4.0,45,0.00,,,0.00,Wunderground v.1.15,2013-01-24 18:05:00,
2013-01-24 11:10:00,42.5,22.1,30.47,NW,317,2.0,2.0,44,0.00,,,0.00,Wunderground v.1.15,2013-01-24 18:10:00,
2013-01-24 11:20:00,44.1,22.4,30.46,NW,317,1.0,1.0,42,0.00,,,0.00,Wunderground v.1.15,2013-01-24 18:20:00,
2013-01-24 11:25:00,45.1,22.2,30.46,NW,317,1.0,2.0,40,0.00,,,0.00,Wunderground v.1.15,2013-01-24 18:25:00,
2013-01-24 11:30:00,45.9,20.4,30.46,NW,317,0.0,2.0,36,0.00,,,0.00,Wunderground v.1.15,2013-01-24 18:30:00,
2013-01-24 11:35:00,46.5,22.2,30.46,NW,317,0.0,2.0,38,0.00,,,0.00,Wunderground v.1.15,2013-01-24 18:35:00,
2013-01-24 11:45:00,45.5,22.5,30.45,NW,316,3.0,4.0,40,0.00,,,0.00,Wunderground v.1.15,2013-01-24 18:45:00,
2013-01-24 11:50:00,45.1,21.0,30.44,NW,315,3.0,3.0,38,0.00,,,0.00,Wunderground v.1.15,2013-01-24 18:50:00,
2013-01-24 11:55:00,45.3,20.5,30.44,NW,313,3.0,3.0,37,0.00,,,0.00,Wunderground v.1.15,2013-01-24 18:55:00,
2013-01-24 12:05:00,46.4,19.5,30.43,NW,313,2.0,3.0,34,0.00,,,0.00,Wunderground v.1.15,2013-01-24 19:05:00,
2013-01-24 12:10:00,46.7,19.8,30.43,WNW,292,3.0,3.0,34,0.00,,,0.00,Wunderground v.1.15,2013-01-24 19:10:00,
2013-01-24 12:15:00,46.8,19.2,30.43,West,278,4.0,6.0,33,0.00,,,0.00,Wunderground v.1.15,2013-01-24 19:15:00,
2013-01-24 12:25:00,46.3,19.4,30.43,WNW,289,7.0,7.0,34,0.00,,,0.00,Wunderground v.1.15,2013-01-24 19:25:00,
2013-01-24 12:30:00,46.6,19.7,30.42,WNW,283,6.0,6.0,34,0.00,,,0.00,Wunderground v.1.15,2013-01-24 19:30:00,
2013-01-24 12:35:00,46.8,20.6,30.42,West,260,5.0,6.0,35,0.00,,,0.00,Wunderground v.1.15,2013-01-24 19:35:00,
2013-01-24 12:45:00,46.3,20.8,30.42,West,276,4.0,5.0,36,0.00,,,0.00,Wunderground v.1.15,2013-01-24 19:45:00,
2013-01-24 12:50:00,46.1,21.2,30.41,WNW,283,4.0,5.0,37,0.00,,,0.00,Wunderground v.1.15,2013-01-24 19:50:00,
2013-01-24 12:55:00,46.0,21.1,30.40,WNW,284,4.0,5.0,37,0.00,,,0.00,Wunderground v.1.15,2013-01-24 19:55:00,
2013-01-24 13:00:00,45.9,22.9,30.40,West,281,4.0,4.0,40,0.00,,,0.00,Wunderground v.1.15,2013-01-24 20:00:00,
2013-01-24 13:10:00,45.2,21.7,30.40,WNW,283,4.0,4.0,39,0.00,,,0.00,Wunderground v.1.15,2013-01-24 20:10:00,
2013-01-24 13:15:00,45.2,22.3,30.40,WNW,288,4.0,6.0,40,0.00,,,0.00,Wunderground v.1.15,2013-01-24 20:15:00,
2013-01-24 13:25:00,45.0,21.5,30.39,West,280,5.0,6.0,39,0.00,,,0.00,Wunderground v.1.15,2013-01-24 20:25:00,
2013-01-24 13:30:00,45.0,20.3,30.40,West,275,5.0,8.0,37,0.00,,,0.00,Wunderground v.1.15,2013-01-24 20:30:00,
2013-01-24 13:35:00,44.8,20.7,30.40,West,269,6.0,8.0,38,0.00,,,0.00,Wunderground v.1.15,2013-01-24 20:35:00,
2013-01-24 13:40:00,44.4,20.3,30.39,West,274,7.0,9.0,38,0.00,,,0.00,Wunderground v.1.15,2013-01-24 20:40:00,
2013-01-24 13:50:00,43.8,20.4,30.40,West,273,7.0,9.0,39,0.00,,,0.00,Wunderground v.1.15,2013-01-24 20:50:00,
2013-01-24 13:55:00,43.6,20.2,30.39,West,269,8.0,9.0,39,0.00,,,0.00,Wunderground v.1.15,2013-01-24 20:55:00,
2013-01-24 14:00:00,43.5,19.5,30.40,West,265,9.0,10.0,38,0.00,,,0.00,Wunderground v.1.15,2013-01-24 21:00:00,
2013-01-24 14:05:00,43.5,19.5,30.40,West,269,9.0,10.0,38,0.00,,,0.00,Wunderground v.1.15,2013-01-24 21:05:00,
2013-01-24 14:15:00,43.4,18.8,30.40,West,276,8.0,9.0,37,0.00,,,0.00,Wunderground v.1.15,2013-01-24 21:15:00,
2013-01-24 14:20:00,43.4,19.5,30.40,West,267,7.0,7.0,38,0.00,,,0.00,Wunderground v.1.15,2013-01-24 21:20:00,
2013-01-24 14:30:00,43.2,19.9,30.40,WNW,291,5.0,5.0,39,0.00,,,0.00,Wunderground v.1.15,2013-01-24 21:30:00,
2013-01-24 14:35:00,42.9,20.8,30.40,WNW,293,4.0,5.0,41,0.00,,,0.00,Wunderground v.1.15,2013-01-24 21:35:00,
2013-01-24 14:40:00,42.9,20.2,30.40,WNW,292,4.0,5.0,40,0.00,,,0.00,Wunderground v.1.15,2013-01-24 21:40:00,
2013-01-24 14:45:00,43.4,18.2,30.40,West,275,5.0,6.0,36,0.00,,,0.00,Wunderground v.1.15,2013-01-24 21:45:00,
2013-01-24 14:55:00,43.5,20.2,30.41,WNW,292,5.0,7.0,39,0.00,,,0.00,Wunderground v.1.15,2013-01-24 21:55:00,
2013-01-24 15:00:00,43.0,21.4,30.41,WNW,289,4.0,4.0,42,0.00,,,0.00,Wunderground v.1.15,2013-01-24 22:00:00,
2013-01-24 15:05:00,42.5,22.6,30.41,WNW,288,3.0,4.0,45,0.00,,,0.00,Wunderground v.1.15,2013-01-24 22:05:00,
2013-01-24 15:15:00,43.1,21.5,30.41,WNW,288,1.0,2.0,42,0.00,,,0.00,Wunderground v.1.15,2013-01-24 22:15:00,
2013-01-24 15:20:00,43.7,22.1,30.41,WNW,288,1.0,2.0,42,0.00,,,0.00,Wunderground v.1.15,2013-01-24 22:20:00,
2013-01-24 15:25:00,43.8,20.4,30.41,West,281,2.0,5.0,39,0.00,,,0.00,Wunderground v.1.15,2013-01-24 22:25:00,
2013-01-24 15:30:00,43.7,20.9,30.42,West,278,4.0,5.0,40,0.00,,,0.00,Wunderground v.1.15,2013-01-24 22:30:00,
2013-01-24 15:40:00,43.3,20.0,30.42,WSW,254,6.0,6.0,39,0.00,,,0.00,Wunderground v.1.15,2013-01-24 22:40:00,
2013-01-24 15:45:00,43.2,19.9,30.42,West,261,6.0,6.0,39,0.00,,,0.00,Wunderground v.1.15,2013-01-24 22:45:00,
2013-01-24 15:55:00,43.1,22.1,30.42,West,266,3.0,4.0,43,0.00,,,0.00,Wunderground v.1.15,2013-01-24 22:55:00,
2013-01-24 16:00:00,42.8,20.1,30.42,West,265,3.0,4.0,40,0.00,,,0.00,Wunderground v.1.15,2013-01-24 23:00:00,
2013-01-24 16:05:00,42.8,21.8,30.42,West,265,3.0,4.0,43,0.00,,,0.00,Wunderground v.1.15,2013-01-24 23:05:00,
2013-01-24 16:10:00,42.8,20.7,30.42,West,265,1.0,1.0,41,0.00,,,0.00,Wunderground v.1.15,2013-01-24 23:10:00,
2013-01-24 16:20:00,42.5,21.0,30.42,West,269,2.0,2.0,42,0.00,,,0.00,Wunderground v.1.15,2013-01-24 23:20:00,
2013-01-24 16:25:00,42.6,21.1,30.42,West,268,0.0,2.0,42,0.00,,,0.00,Wunderground v.1.15,2013-01-24 23:25:00,
2013-01-24 16:30:00,42.4,24.1,30.42,West,269,0.0,3.0,48,0.00,,,0.00,Wunderground v.1.15,2013-01-24 23:30:00,
2013-01-24 16:35:00,41.5,22.2,30.42,West,268,2.0,3.0,46,0.00,,,0.00,Wunderground v.1.15,2013-01-24 23:35:00,
2013-01-24 16:45:00,41.1,24.3,30.42,West,269,1.0,4.0,51,0.00,,,0.00,Wunderground v.1.15,2013-01-24 23:45:00,
2013-01-24 16:50:00,41.1,22.4,30.41,West,269,3.0,3.0,47,0.00,,,0.00,Wunderground v.1.15,2013-01-24 23:50:00,
2013-01-24 16:55:00,41.2,20.9,30.41,West,269,2.0,3.0,44,0.00,,,0.00,Wunderground v.1.15,2013-01-24 23:55:00,
2013-01-24 17:05:00,40.5,22.8,30.41,West,268,2.0,2.0,49,0.00,,,0.00,Wunderground v.1.15,2013-01-25 00:05:00,
2013-01-24 17:10:00,39.8,23.6,30.42,West,269,2.0,2.0,52,0.00,,,0.00,Wunderground v.1.15,2013-01-25 00:10:00,
2013-01-24 17:15:00,39.2,23.5,30.42,West,269,2.0,2.0,53,0.00,,,0.00,Wunderground v.1.15,2013-01-25 00:15:00,
2013-01-24 17:25:00,38.2,24.3,30.41,West,269,1.0,2.0,57,0.00,,,0.00,Wunderground v.1.15,2013-01-25 00:25:00,
2013-01-24 17:30:00,37.7,24.6,30.41,West,269,1.0,2.0,59,0.00,,,0.00,Wunderground v.1.15,2013-01-25 00:30:00,
2013-01-24 17:35:00,37.2,23.8,30.41,West,269,2.0,2.0,58,0.00,,,0.00,Wunderground v.1.15,2013-01-25 00:35:00,
2013-01-24 17:45:00,36.9,25.5,30.41,West,269,1.0,2.0,63,0.00,,,0.00,Wunderground v.1.15,2013-01-25 00:45:00,
2013-01-24 17:50:00,36.5,25.5,30.41,West,269,1.0,2.0,64,0.00,,,0.00,Wunderground v.1.15,2013-01-25 00:50:00,
2013-01-24 17:55:00,36.3,24.1,30.41,West,269,1.0,2.0,61,0.00,,,0.00,Wunderground v.1.15,2013-01-25 00:55:00,
2013-01-24 18:05:00,36.2,25.6,30.41,West,268,1.0,2.0,65,0.00,,,0.00,Wunderground v.1.15,2013-01-25 01:05:00,
2013-01-24 18:10:00,36.3,25.3,30.41,West,269,1.0,1.0,64,0.00,,,0.00,Wunderground v.1.15,2013-01-25 01:10:00,
2013-01-24 18:15:00,36.3,26.0,30.41,West,269,0.0,2.0,66,0.00,,,0.00,Wunderground v.1.15,2013-01-25 01:15:00,
2013-01-24 18:20:00,35.9,26.4,30.41,West,268,0.0,3.0,68,0.00,,,0.00,Wunderground v.1.15,2013-01-25 01:20:00,
2013-01-24 18:30:00,35.7,26.5,30.42,West,269,2.0,2.0,69,0.00,,,0.00,Wunderground v.1.15,2013-01-25 01:30:00,
2013-01-24 18:35:00,35.8,27.7,30.43,West,269,2.0,2.0,72,0.00,,,0.00,Wunderground v.1.15,2013-01-25 01:35:00,
2013-01-24 18:45:00,37.4,25.9,30.42,West,268,1.0,2.0,63,0.00,,,0.00,Wunderground v.1.15,2013-01-25 01:45:00,
2013-01-24 18:50:00,37.4,26.7,30.43,West,268,0.0,2.0,65,0.00,,,0.00,Wunderground v.1.15,2013-01-25 01:50:00,
2013-01-24 18:55:00,37.0,26.3,30.43,West,268,2.0,3.0,65,0.00,,,0.00,Wunderground v.1.15,2013-01-25 01:55:00,
2013-01-24 19:00:00,36.4,26.1,30.42,West,268,2.0,3.0,66,0.00,,,0.00,Wunderground v.1.15,2013-01-25 02:00:00,
2013-01-24 19:10:00,35.9,24.9,30.42,West,269,2.0,2.0,64,0.00,,,0.00,Wunderground v.1.15,2013-01-25 02:10:00,
2013-01-24 19:15:00,35.7,24.3,30.42,West,269,1.0,2.0,63,0.00,,,0.00,Wunderground v.1.15,2013-01-25 02:15:00,
2013-01-24 19:25:00,35.8,24.0,30.43,West,268,2.0,2.0,62,0.00,,,0.00,Wunderground v.1.15,2013-01-25 02:25:00,
2013-01-24 19:30:00,35.9,24.5,30.42,West,269,1.0,2.0,63,0.00,,,0.00,Wunderground v.1.15,2013-01-25 02:30:00,
2013-01-24 19:35:00,36.0,24.2,30.42,West,269,1.0,2.0,62,0.00,,,0.00,Wunderground v.1.15,2013-01-25 02:35:00,
2013-01-24 19:40:00,36.0,23.0,30.42,West,269,0.0,2.0,59,0.00,,,0.00,Wunderground v.1.15,2013-01-25 02:40:00,
2013-01-24 19:50:00,35.7,25.4,30.42,West,269,0.0,2.0,66,0.00,,,0.00,Wunderground v.1.15,2013-01-25 02:50:00,
2013-01-24 19:55:00,35.5,26.0,30.42,West,269,1.0,3.0,68,0.00,,,0.00,Wunderground v.1.15,2013-01-25 02:55:00,
2013-01-24 20:00:00,35.5,26.0,30.42,West,268,2.0,2.0,68,0.00,,,0.00,Wunderground v.1.15,2013-01-25 03:00:00,
2013-01-24 20:10:00,36.8,24.2,30.42,West,269,4.0,5.0,60,0.00,,,0.00,Wunderground v.1.15,2013-01-25 03:10:00,
2013-01-24 20:15:00,37.9,24.0,30.42,West,279,5.0,6.0,57,0.00,,,0.00,Wunderground v.1.15,2013-01-25 03:15:00,
2013-01-24 20:20:00,38.3,24.0,30.43,WNW,284,6.0,9.0,56,0.00,,,0.00,Wunderground v.1.15,2013-01-25 03:20:00,
2013-01-24 20:25:00,38.2,24.7,30.43,West,275,7.0,9.0,58,0.00,,,0.00,Wunderground v.1.15,2013-01-25 03:25:00,
2013-01-24 20:35:00,37.3,24.7,30.43,West,272,7.0,8.0,60,0.00,,,0.00,Wunderground v.1.15,2013-01-25 03:35:00,
2013-01-24 20:40:00,36.9,25.1,30.43,West,268,7.0,8.0,62,0.00,,,0.00,Wunderground v.1.15,2013-01-25 03:40:00,
2013-01-24 20:50:00,36.2,26.3,30.42,WNW,286,8.0,9.0,67,0.00,,,0.00,Wunderground v.1.15,2013-01-25 03:50:00,
2013-01-24 20:55:00,35.8,27.0,30.41,WNW,294,6.0,9.0,70,0.00,,,0.00,Wunderground v.1.15,2013-01-25 03:55:00,
2013-01-24 21:00:00,35.4,27.3,30.41,WNW,296,5.0,5.0,72,0.00,,,0.00,Wunderground v.1.15,2013-01-25 04:00:00,
2013-01-24 21:05:00,35.2,27.4,30.41,WNW,294,4.0,5.0,73,0.00,,,0.00,Wunderground v.1.15,2013-01-25 04:05:00,
2013-01-24 21:15:00,35.1,27.3,30.42,WNW,289,4.0,5.0,73,0.00,,,0.00,Wunderground v.1.15,2013-01-25 04:15:00,
2013-01-24 21:20:00,35.0,27.5,30.41,WNW,290,3.0,3.0,74,0.00,,,0.00,Wunderground v.1.15,2013-01-25 04:20:00,
2013-01-24 21:25:00,34.9,27.1,30.41,WNW,290,2.0,3.0,73,0.00,,,0.00,Wunderground v.1.15,2013-01-25 04:25:00,
2013-01-24 21:35:00,34.8,27.4,30.39,WNW,290,0.0,2.0,74,0.00,,,0.00,Wunderground v.1.15,2013-01-25 04:35:00,
2013-01-24 21:40:00,34.7,27.9,30.39,WNW,290,0.0,2.0,76,0.00,,,0.00,Wunderground v.1.15,2013-01-25 04:40:00,
2013-01-24 21:45:00,34.8,28.0,30.39,WNW,290,0.0,2.0,76,0.00,,,0.00,Wunderground v.1.15,2013-01-25 04:45:00,
2013-01-24 21:55:00,34.5,28.0,30.39,WNW,290,0.0,2.0,77,0.00,,,0.00,Wunderground v.1.15,2013-01-25 04:55:00,
2013-01-24 22:00:00,34.4,27.9,30.39,WNW,290,0.0,2.0,77,0.00,,,0.00,Wunderground v.1.15,2013-01-25 05:00:00,
2013-01-24 22:05:00,34.4,28.2,30.39,WNW,290,0.0,2.0,78,0.00,,,0.00,Wunderground v.1.15,2013-01-25 05:05:00,
2013-01-24 22:10:00,34.4,28.6,30.40,WNW,290,0.0,2.0,79,0.00,,,0.00,Wunderground v.1.15,2013-01-25 05:10:00,
2013-01-24 22:15:00,34.3,28.5,30.40,WNW,290,0.0,2.0,79,0.00,,,0.00,Wunderground v.1.15,2013-01-25 05:15:00,
2013-01-24 22:20:00,34.1,28.6,30.40,WNW,290,0.0,2.0,80,0.00,,,0.00,Wunderground v.1.15,2013-01-25 05:20:00,
2013-01-24 22:30:00,34.1,28.6,30.41,WNW,290,0.0,2.0,80,0.00,,,0.00,Wunderground v.1.15,2013-01-25 05:30:00,
2013-01-24 22:35:00,34.1,28.6,30.40,WNW,290,0.0,2.0,80,0.00,,,0.00,Wunderground v.1.15,2013-01-25 05:35:00,
2013-01-24 22:40:00,34.0,28.8,30.41,WNW,290,0.0,2.0,81,0.00,,,0.00,Wunderground v.1.15,2013-01-25 05:40:00,
2013-01-24 22:50:00,33.8,28.9,30.41,WNW,290,0.0,2.0,82,0.00,,,0.00,Wunderground v.1.15,2013-01-25 05:50:00,
2013-01-24 22:55:00,33.7,28.8,30.41,WNW,290,0.0,2.0,82,0.00,,,0.00,Wunderground v.1.15,2013-01-25 05:55:00,
2013-01-24 23:00:00,33.6,28.7,30.41,WNW,290,0.0,2.0,82,0.00,,,0.00,Wunderground v.1.15,2013-01-25 06:00:00,
2013-01-24 23:10:00,34.4,29.8,30.41,WNW,290,1.0,1.0,83,0.00,,,0.00,Wunderground v.1.15,2013-01-25 06:10:00,
2013-01-24 23:15:00,34.5,29.9,30.42,WNW,290,1.0,2.0,83,0.00,,,0.00,Wunderground v.1.15,2013-01-25 06:15:00,
2013-01-24 23:20:00,34.4,29.8,30.41,WNW,290,0.0,2.0,83,0.00,,,0.00,Wunderground v.1.15,2013-01-25 06:20:00,
2013-01-24 23:25:00,34.4,30.1,30.41,WNW,290,0.0,2.0,84,0.00,,,0.00,Wunderground v.1.15,2013-01-25 06:25:00,
2013-01-24 23:35:00,34.2,30.2,30.42,WNW,290,0.0,2.0,85,0.00,,,0.00,Wunderground v.1.15,2013-01-25 06:35:00,
2013-01-24 23:40:00,34.2,30.2,30.42,WNW,290,0.0,2.0,85,0.00,,,0.00,Wunderground v.1.15,2013-01-25 06:40:00,
2013-01-24 23:45:00,34.2,30.4,30.42,WNW,290,0.0,2.0,86,0.00,,,0.00,Wunderground v.1.15,2013-01-25 06:45:00,
2013-01-24 23:55:00,33.9,30.2,30.41,WNW,290,0.0,2.0,86,0.00,,,0.00,Wunderground v.1.15,2013-01-25 06:55:00,